sensor_id;sensor_type;location;lat;lon;timestamp;pressure;altitude;pressure_sealevel;temperature;humidity
4590;BME280;2307;48.448;9.216;2022-10-16T00:01:52;95357.25;;;16.10;100.00
4590;BME280;2307;48.448;9.216;2022-10-16T00:04:18;95351.38;;;16.13;100.00
4590;BME280;2307;48.448;9.216;2022-10-16T00:06:44;95355.69;;;16.04;100.00
4590;BME280;2307;48.448;9.216;2022-10-16T00:09:13;95351.41;;;15.92;100.00
4590;BME280;2307;48.448;9.216;2022-10-16T00:11:40;95357.84;;;15.91;100.00
4590;BME280;2307;48.448;9.216;2022-10-16T00:14:07;95364.22;;;15.90;100.00
4590;BME280;2307;48.448;9.216;2022-10-16T00:16:34;95355.69;;;15.83;100.00
4590;BME280;2307;48.448;9.216;2022-10-16T00:19:01;95363.69;;;15.83;100.00
4590;BME280;2307;48.448;9.216;2022-10-16T00:21:28;95365.28;;;15.79;100.00
4590;BME280;2307;48.448;9.216;2022-10-16T00:23:56;95366.88;;;15.70;100.00
4590;BME280;2307;48.448;9.216;2022-10-16T00:26:25;95361.56;;;15.65;100.00
4590;BME280;2307;48.448;9.216;2022-10-16T00:28:52;95362.63;;;15.64;100.00
4590;BME280;2307;48.448;9.216;2022-10-16T00:31:19;95369.56;;;15.55;100.00
4590;BME280;2307;48.448;9.216;2022-10-16T00:33:46;95358.91;;;15.55;100.00
4590;BME280;2307;48.448;9.216;2022-10-16T00:36:13;95369.25;;;15.47;100.00
4590;BME280;2307;48.448;9.216;2022-10-16T00:38:40;95372.47;;;15.43;100.00
4590;BME280;2307;48.448;9.216;2022-10-16T00:41:07;95358.13;;;15.50;100.00
4590;BME280;2307;48.448;9.216;2022-10-16T00:43:36;95367.66;;;15.46;100.00
4590;BME280;2307;48.448;9.216;2022-10-16T00:46:05;95373.25;;;15.44;100.00
4590;BME280;2307;48.448;9.216;2022-10-16T00:48:31;95359.97;;;15.49;100.00
4590;BME280;2307;48.448;9.216;2022-10-16T00:50:58;95364.50;;;15.54;100.00
4590;BME280;2307;48.448;9.216;2022-10-16T00:53:24;95357.31;;;15.54;100.00
4590;BME280;2307;48.448;9.216;2022-10-16T00:55:51;95362.38;;;15.56;100.00
4590;BME280;2307;48.448;9.216;2022-10-16T00:58:18;95370.91;;;15.63;100.00
4590;BME280;2307;48.448;9.216;2022-10-16T01:00:45;95370.09;;;15.72;100.00
4590;BME280;2307;48.448;9.216;2022-10-16T01:05:59;95360.50;;;15.76;100.00
4590;BME280;2307;48.448;9.216;2022-10-16T01:08:29;95356.75;;;15.82;100.00
4590;BME280;2307;48.448;9.216;2022-10-16T01:11:01;95363.66;;;15.99;100.00
4590;BME280;2307;48.448;9.216;2022-10-16T01:13:32;95368.16;;;16.08;100.00
4590;BME280;2307;48.448;9.216;2022-10-16T01:16:05;95370.59;;;16.10;100.00
4590;BME280;2307;48.448;9.216;2022-10-16T01:18:34;95369.25;;;16.07;100.00
4590;BME280;2307;48.448;9.216;2022-10-16T01:21:02;95370.84;;;16.03;100.00
4590;BME280;2307;48.448;9.216;2022-10-16T01:23:34;95372.19;;;16.01;100.00
4590;BME280;2307;48.448;9.216;2022-10-16T01:26:08;95379.09;;;16.02;100.00
4590;BME280;2307;48.448;9.216;2022-10-16T01:28:38;95375.66;;;16.06;100.00
4590;BME280;2307;48.448;9.216;2022-10-16T01:31:07;95362.56;;;16.05;100.00
4590;BME280;2307;48.448;9.216;2022-10-16T01:33:38;95352.16;;;16.18;100.00
4590;BME280;2307;48.448;9.216;2022-10-16T01:36:09;95364.16;;;16.26;100.00
4590;BME280;2307;48.448;9.216;2022-10-16T01:38:36;95358.53;;;16.32;100.00
4590;BME280;2307;48.448;9.216;2022-10-16T01:41:06;95361.44;;;16.41;100.00
4590;BME280;2307;48.448;9.216;2022-10-16T01:43:35;95371.59;;;16.39;100.00
4590;BME280;2307;48.448;9.216;2022-10-16T01:46:03;95368.63;;;16.40;100.00
4590;BME280;2307;48.448;9.216;2022-10-16T01:48:31;95364.63;;;16.43;100.00
4590;BME280;2307;48.448;9.216;2022-10-16T01:50:59;95369.41;;;16.46;100.00
4590;BME280;2307;48.448;9.216;2022-10-16T01:53:28;95368.91;;;16.39;100.00
4590;BME280;2307;48.448;9.216;2022-10-16T01:55:55;95371.56;;;16.44;100.00
4590;BME280;2307;48.448;9.216;2022-10-16T01:58:24;95373.41;;;16.43;100.00
4590;BME280;2307;48.448;9.216;2022-10-16T02:00:51;95375.81;;;16.50;100.00
4590;BME280;2307;48.448;9.216;2022-10-16T02:03:20;95368.91;;;16.39;100.00
4590;BME280;2307;48.448;9.216;2022-10-16T02:05:47;95365.47;;;16.28;100.00
4590;BME280;2307;48.448;9.216;2022-10-16T02:08:15;95367.34;;;16.28;100.00
4590;BME280;2307;48.448;9.216;2022-10-16T02:10:41;95368.16;;;16.18;100.00
4590;BME280;2307;48.448;9.216;2022-10-16T02:13:09;95372.19;;;16.11;100.00
4590;BME280;2307;48.448;9.216;2022-10-16T02:15:36;95355.13;;;16.17;100.00
4590;BME280;2307;48.448;9.216;2022-10-16T02:18:03;95359.09;;;16.19;100.00
4590;BME280;2307;48.448;9.216;2022-10-16T02:20:32;95367.34;;;16.28;100.00
4590;BME280;2307;48.448;9.216;2022-10-16T02:23:00;95354.50;;;16.45;100.00
4590;BME280;2307;48.448;9.216;2022-10-16T02:25:29;95362.78;;;16.38;100.00
4590;BME280;2307;48.448;9.216;2022-10-16T02:27:57;95360.91;;;16.39;100.00
4590;BME280;2307;48.448;9.216;2022-10-16T02:30:27;95364.06;;;16.46;100.00
4590;BME280;2307;48.448;9.216;2022-10-16T02:32:54;95363.53;;;16.49;100.00
4590;BME280;2307;48.448;9.216;2022-10-16T02:35:21;95363.59;;;16.39;100.00
4590;BME280;2307;48.448;9.216;2022-10-16T02:37:50;95373.19;;;16.35;100.00
4590;BME280;2307;48.448;9.216;2022-10-16T02:40:18;95371.59;;;16.24;100.00
4590;BME280;2307;48.448;9.216;2022-10-16T02:42:49;95367.91;;;16.20;100.00
4590;BME280;2307;48.448;9.216;2022-10-16T02:45:16;95371.38;;;16.20;100.00
4590;BME280;2307;48.448;9.216;2022-10-16T02:47:43;95370.56;;;16.20;100.00
4590;BME280;2307;48.448;9.216;2022-10-16T02:50:09;95359.63;;;16.26;100.00
4590;BME280;2307;48.448;9.216;2022-10-16T02:52:35;95361.47;;;16.31;100.00
4590;BME280;2307;48.448;9.216;2022-10-16T02:55:04;95359.88;;;16.30;100.00
4590;BME280;2307;48.448;9.216;2022-10-16T02:57:30;95363.06;;;16.32;100.00
4590;BME280;2307;48.448;9.216;2022-10-16T02:59:56;95364.13;;;16.36;100.00
4590;BME280;2307;48.448;9.216;2022-10-16T03:02:23;95365.72;;;16.42;100.00
4590;BME280;2307;48.448;9.216;2022-10-16T03:04:49;95367.56;;;16.41;100.00
4590;BME280;2307;48.448;9.216;2022-10-16T03:07:15;95361.97;;;16.38;100.00
4590;BME280;2307;48.448;9.216;2022-10-16T03:09:42;95361.19;;;16.37;100.00
4590;BME280;2307;48.448;9.216;2022-10-16T03:12:10;95363.31;;;16.45;100.00
4590;BME280;2307;48.448;9.216;2022-10-16T03:14:37;95360.34;;;16.47;100.00
4590;BME280;2307;48.448;9.216;2022-10-16T03:17:04;95363.03;;;16.42;100.00
4590;BME280;2307;48.448;9.216;2022-10-16T03:19:31;95357.44;;;16.38;100.00
4590;BME280;2307;48.448;9.216;2022-10-16T03:21:57;95365.19;;;16.35;100.00
4590;BME280;2307;48.448;9.216;2022-10-16T03:24:23;95360.16;;;16.23;100.00
4590;BME280;2307;48.448;9.216;2022-10-16T03:26:50;95360.16;;;16.18;100.00
4590;BME280;2307;48.448;9.216;2022-10-16T03:29:17;95369.47;;;16.26;100.00
4590;BME280;2307;48.448;9.216;2022-10-16T03:31:44;95367.34;;;16.28;100.00
4590;BME280;2307;48.448;9.216;2022-10-16T03:34:10;95370.53;;;16.25;100.00
4590;BME280;2307;48.448;9.216;2022-10-16T03:36:36;95373.97;;;16.30;100.00
4590;BME280;2307;48.448;9.216;2022-10-16T03:39:03;95376.41;;;16.32;100.00
4590;BME280;2307;48.448;9.216;2022-10-16T03:41:29;95378.78;;;16.33;100.00
4590;BME280;2307;48.448;9.216;2022-10-16T03:43:55;95380.91;;;16.31;100.00
4590;BME280;2307;48.448;9.216;2022-10-16T03:46:23;95377.19;;;16.32;100.00
4590;BME280;2307;48.448;9.216;2022-10-16T03:48:50;95376.38;;;16.37;100.00
4590;BME280;2307;48.448;9.216;2022-10-16T03:51:16;95371.31;;;16.35;100.00
4590;BME280;2307;48.448;9.216;2022-10-16T03:53:42;95371.31;;;16.30;100.00
4590;BME280;2307;48.448;9.216;2022-10-16T03:56:09;95378.28;;;16.26;100.00
4590;BME280;2307;48.448;9.216;2022-10-16T03:58:35;95369.47;;;16.31;100.00
4590;BME280;2307;48.448;9.216;2022-10-16T04:01:01;95375.03;;;16.39;100.00
4590;BME280;2307;48.448;9.216;2022-10-16T04:03:29;95384.09;;;16.38;100.00
4590;BME280;2307;48.448;9.216;2022-10-16T04:05:55;95374.25;;;16.39;100.00
4590;BME280;2307;48.448;9.216;2022-10-16T04:08:22;95373.72;;;16.32;100.00
4590;BME280;2307;48.448;9.216;2022-10-16T04:10:48;95384.94;;;16.29;100.00
4590;BME280;2307;48.448;9.216;2022-10-16T04:13:15;95392.38;;;16.32;100.00
4590;BME280;2307;48.448;9.216;2022-10-16T04:15:41;95380.63;;;16.38;100.00
4590;BME280;2307;48.448;9.216;2022-10-16T04:18:08;95387.00;;;16.47;100.00
4590;BME280;2307;48.448;9.216;2022-10-16T04:20:36;95389.16;;;16.55;100.00
4590;BME280;2307;48.448;9.216;2022-10-16T04:23:02;95388.34;;;16.55;100.00
4590;BME280;2307;48.448;9.216;2022-10-16T04:25:29;95398.19;;;16.59;100.00
4590;BME280;2307;48.448;9.216;2022-10-16T04:27:56;95398.75;;;16.61;100.00
4590;BME280;2307;48.448;9.216;2022-10-16T04:30:22;95383.50;;;16.62;100.00
4590;BME280;2307;48.448;9.216;2022-10-16T04:32:49;95383.00;;;16.65;100.00
4590;BME280;2307;48.448;9.216;2022-10-16T04:35:16;95382.16;;;16.69;100.00
4590;BME280;2307;48.448;9.216;2022-10-16T04:37:43;95377.03;;;16.78;100.00
4590;BME280;2307;48.448;9.216;2022-10-16T04:40:10;95380.00;;;16.76;100.00
4590;BME280;2307;48.448;9.216;2022-10-16T04:42:36;95383.72;;;16.80;100.00
4590;BME280;2307;48.448;9.216;2022-10-16T04:45:03;95384.25;;;16.82;100.00
4590;BME280;2307;48.448;9.216;2022-10-16T04:47:30;95380.50;;;16.83;100.00
4590;BME280;2307;48.448;9.216;2022-10-16T04:49:56;95383.69;;;16.85;100.00
4590;BME280;2307;48.448;9.216;2022-10-16T04:52:24;95395.41;;;16.89;100.00
4590;BME280;2307;48.448;9.216;2022-10-16T04:54:52;95397.00;;;16.90;100.00
4590;BME280;2307;48.448;9.216;2022-10-16T04:57:19;95397.59;;;16.82;100.00
4590;BME280;2307;48.448;9.216;2022-10-16T04:59:45;95401.31;;;16.81;100.00
4590;BME280;2307;48.448;9.216;2022-10-16T05:02:11;95406.94;;;16.80;100.00
4590;BME280;2307;48.448;9.216;2022-10-16T05:04:38;95407.19;;;16.83;100.00
4590;BME280;2307;48.448;9.216;2022-10-16T05:07:04;95410.41;;;16.75;100.00
4590;BME280;2307;48.448;9.216;2022-10-16T05:09:30;95409.31;;;16.81;100.00
4590;BME280;2307;48.448;9.216;2022-10-16T05:11:58;95410.91;;;16.82;100.00
4590;BME280;2307;48.448;9.216;2022-10-16T05:14:24;95421.56;;;16.87;100.00
4590;BME280;2307;48.448;9.216;2022-10-16T05:16:51;95419.44;;;16.84;100.00
4590;BME280;2307;48.448;9.216;2022-10-16T05:19:17;95426.94;;;16.82;100.00
4590;BME280;2307;48.448;9.216;2022-10-16T05:21:44;95415.75;;;16.75;100.00
4590;BME280;2307;48.448;9.216;2022-10-16T05:24:10;95421.34;;;16.69;100.00
4590;BME280;2307;48.448;9.216;2022-10-16T05:26:37;95420.59;;;16.48;100.00
4590;BME280;2307;48.448;9.216;2022-10-16T05:29:04;95422.22;;;16.39;100.00
4590;BME280;2307;48.448;9.216;2022-10-16T05:31:31;95436.91;;;16.31;100.00
4590;BME280;2307;48.448;9.216;2022-10-16T05:33:58;95424.09;;;16.28;100.00
4590;BME280;2307;48.448;9.216;2022-10-16T05:36:24;95426.53;;;16.20;100.00
4590;BME280;2307;48.448;9.216;2022-10-16T05:38:50;95428.13;;;16.16;100.00
4590;BME280;2307;48.448;9.216;2022-10-16T05:41:17;95422.78;;;16.16;100.00
4590;BME280;2307;48.448;9.216;2022-10-16T05:43:46;95430.53;;;16.07;100.00
4590;BME280;2307;48.448;9.216;2022-10-16T05:46:14;95428.66;;;16.03;100.00
4590;BME280;2307;48.448;9.216;2022-10-16T05:48:41;95436.66;;;15.98;100.00
4590;BME280;2307;48.448;9.216;2022-10-16T05:51:09;95426.56;;;15.94;100.00
4590;BME280;2307;48.448;9.216;2022-10-16T05:53:36;95427.59;;;15.99;100.00
4590;BME280;2307;48.448;9.216;2022-10-16T05:56:02;95428.66;;;16.03;100.00
4590;BME280;2307;48.448;9.216;2022-10-16T05:58:29;95435.03;;;16.12;100.00
4590;BME280;2307;48.448;9.216;2022-10-16T06:00:57;95437.44;;;16.18;100.00
4590;BME280;2307;48.448;9.216;2022-10-16T06:03:25;95438.78;;;16.16;100.00
4590;BME280;2307;48.448;9.216;2022-10-16T06:05:51;95436.63;;;16.18;100.00
4590;BME280;2307;48.448;9.216;2022-10-16T06:08:18;95444.91;;;16.16;100.00
4590;BME280;2307;48.448;9.216;2022-10-16T06:10:45;95443.56;;;16.29;100.00
4590;BME280;2307;48.448;9.216;2022-10-16T06:13:11;95451.28;;;16.30;100.00
4590;BME280;2307;48.448;9.216;2022-10-16T06:15:38;95462.19;;;16.44;100.00
4590;BME280;2307;48.448;9.216;2022-10-16T06:18:06;95459.00;;;16.42;100.00
4590;BME280;2307;48.448;9.216;2022-10-16T06:20:34;95460.59;;;16.43;100.00
4590;BME280;2307;48.448;9.216;2022-10-16T06:23:03;95460.06;;;16.51;100.00
4590;BME280;2307;48.448;9.216;2022-10-16T06:25:29;95461.66;;;16.57;100.00
4590;BME280;2307;48.448;9.216;2022-10-16T06:27:56;95467.00;;;16.67;100.00
4590;BME280;2307;48.448;9.216;2022-10-16T06:30:22;95477.66;;;16.67;100.00
4590;BME280;2307;48.448;9.216;2022-10-16T06:32:48;95480.28;;;16.72;100.00
4590;BME280;2307;48.448;9.216;2022-10-16T06:35:15;95477.09;;;16.80;100.00
4590;BME280;2307;48.448;9.216;2022-10-16T06:37:42;95470.66;;;16.86;100.00
4590;BME280;2307;48.448;9.216;2022-10-16T06:40:09;95471.69;;;16.90;100.00
4590;BME280;2307;48.448;9.216;2022-10-16T06:42:35;95474.91;;;16.92;100.00
4590;BME280;2307;48.448;9.216;2022-10-16T06:45:02;95478.13;;;16.89;100.00
4590;BME280;2307;48.448;9.216;2022-10-16T06:47:28;95489.03;;;16.98;100.00
4590;BME280;2307;48.448;9.216;2022-10-16T06:49:54;95495.41;;;17.12;100.00
4590;BME280;2307;48.448;9.216;2022-10-16T06:52:21;95502.34;;;17.03;100.00
4590;BME280;2307;48.448;9.216;2022-10-16T06:54:49;95506.28;;;17.16;100.00
4590;BME280;2307;48.448;9.216;2022-10-16T06:57:15;95507.91;;;17.22;100.00
4590;BME280;2307;48.448;9.216;2022-10-16T06:59:41;95509.19;;;17.34;100.00
4590;BME280;2307;48.448;9.216;2022-10-16T07:02:08;95507.88;;;17.27;100.00
4590;BME280;2307;48.448;9.216;2022-10-16T07:04:35;95515.88;;;17.27;100.00
4590;BME280;2307;48.448;9.216;2022-10-16T07:07:02;95519.88;;;17.29;100.00
4590;BME280;2307;48.448;9.216;2022-10-16T07:09:28;95521.47;;;17.25;100.00
4590;BME280;2307;48.448;9.216;2022-10-16T07:11:56;95524.94;;;17.26;100.00
4590;BME280;2307;48.448;9.216;2022-10-16T07:14:22;95532.75;;;17.12;100.00
4590;BME280;2307;48.448;9.216;2022-10-16T07:16:49;95529.78;;;17.24;100.00
4590;BME280;2307;48.448;9.216;2022-10-16T07:19:15;95528.16;;;17.23;100.00
4590;BME280;2307;48.448;9.216;2022-10-16T07:21:43;95530.75;;;17.38;100.00
4590;BME280;2307;48.448;9.216;2022-10-16T07:24:10;95536.13;;;17.33;100.00
4590;BME280;2307;48.448;9.216;2022-10-16T07:26:37;95541.97;;;17.45;100.00
4590;BME280;2307;48.448;9.216;2022-10-16T07:29:06;95541.75;;;17.36;100.00
4590;BME280;2307;48.448;9.216;2022-10-16T07:31:32;95547.34;;;17.35;100.00
4590;BME280;2307;48.448;9.216;2022-10-16T07:33:59;95552.09;;;17.48;100.00
4590;BME280;2307;48.448;9.216;2022-10-16T07:36:26;95553.16;;;17.57;100.00
4590;BME280;2307;48.448;9.216;2022-10-16T07:38:52;95550.75;;;17.56;100.00
4590;BME280;2307;48.448;9.216;2022-10-16T07:41:19;95558.44;;;17.67;100.00
4590;BME280;2307;48.448;9.216;2022-10-16T07:43:47;95557.44;;;17.53;100.00
4590;BME280;2307;48.448;9.216;2022-10-16T07:46:15;95563.63;;;17.43;100.00
4590;BME280;2307;48.448;9.216;2022-10-16T07:48:42;95578.28;;;17.56;100.00
4590;BME280;2307;48.448;9.216;2022-10-16T07:51:12;95584.69;;;17.55;100.00
4590;BME280;2307;48.448;9.216;2022-10-16T07:53:38;95587.09;;;17.57;100.00
4590;BME280;2307;48.448;9.216;2022-10-16T07:56:05;95591.34;;;17.52;100.00
4590;BME280;2307;48.448;9.216;2022-10-16T07:58:32;95593.22;;;17.57;100.00
4590;BME280;2307;48.448;9.216;2022-10-16T08:01:03;95592.13;;;17.63;100.00
4590;BME280;2307;48.448;9.216;2022-10-16T08:03:31;95599.78;;;17.80;100.00
4590;BME280;2307;48.448;9.216;2022-10-16T08:05:57;95605.94;;;17.80;100.00
4590;BME280;2307;48.448;9.216;2022-10-16T08:08:24;95601.06;;;17.92;100.00
4590;BME280;2307;48.448;9.216;2022-10-16T08:10:50;95606.88;;;18.10;100.00
4590;BME280;2307;48.448;9.216;2022-10-16T08:13:16;95597.78;;;18.05;100.00
4590;BME280;2307;48.448;9.216;2022-10-16T08:15:43;95596.16;;;18.10;100.00
4590;BME280;2307;48.448;9.216;2022-10-16T08:18:10;95591.34;;;18.12;100.00
4590;BME280;2307;48.448;9.216;2022-10-16T08:20:38;95586.53;;;18.14;100.00
4590;BME280;2307;48.448;9.216;2022-10-16T08:23:05;95585.41;;;18.20;100.00
4590;BME280;2307;48.448;9.216;2022-10-16T08:25:33;95592.84;;;18.28;100.00
4590;BME280;2307;48.448;9.216;2022-10-16T08:28:00;95609.63;;;18.33;100.00
4590;BME280;2307;48.448;9.216;2022-10-16T08:30:26;95607.00;;;18.28;100.00
4590;BME280;2307;48.448;9.216;2022-10-16T08:32:53;95612.81;;;18.40;100.00
4590;BME280;2307;48.448;9.216;2022-10-16T08:35:19;95608.72;;;18.53;100.00
4590;BME280;2307;48.448;9.216;2022-10-16T08:37:47;95620.19;;;18.58;100.00
4590;BME280;2307;48.448;9.216;2022-10-16T08:40:16;95629.69;;;18.75;100.00
4590;BME280;2307;48.448;9.216;2022-10-16T08:42:47;95633.59;;;18.87;100.00
4590;BME280;2307;48.448;9.216;2022-10-16T08:45:24;95631.31;;;19.04;100.00
4590;BME280;2307;48.448;9.216;2022-10-16T08:47:56;95631.41;;;19.23;100.00
4590;BME280;2307;48.448;9.216;2022-10-16T08:50:27;95635.06;;;19.32;100.00
4590;BME280;2307;48.448;9.216;2022-10-16T08:52:55;95638.41;;;19.48;100.00
4590;BME280;2307;48.448;9.216;2022-10-16T08:55:27;95650.16;;;19.52;100.00
4590;BME280;2307;48.448;9.216;2022-10-16T08:57:55;95652.44;;;19.40;100.00
4590;BME280;2307;48.448;9.216;2022-10-16T09:00:21;95648.69;;;19.36;100.00
4590;BME280;2307;48.448;9.216;2022-10-16T09:02:49;95650.50;;;19.45;100.00
4590;BME280;2307;48.448;9.216;2022-10-16T09:05:21;95653.91;;;19.51;100.00
4590;BME280;2307;48.448;9.216;2022-10-16T09:07:53;95653.34;;;19.54;100.00
4590;BME280;2307;48.448;9.216;2022-10-16T09:10:29;95651.19;;;19.56;100.00
4590;BME280;2307;48.448;9.216;2022-10-16T09:13:00;95665.78;;;19.45;100.00
4590;BME280;2307;48.448;9.216;2022-10-16T09:15:31;95654.47;;;19.48;100.00
4590;BME280;2307;48.448;9.216;2022-10-16T09:18:02;95648.94;;;19.39;100.00
4590;BME280;2307;48.448;9.216;2022-10-16T09:20:39;95664.41;;;19.47;100.00
4590;BME280;2307;48.448;9.216;2022-10-16T09:23:12;95668.91;;;19.52;100.00
4590;BME280;2307;48.448;9.216;2022-10-16T09:25:42;95671.94;;;19.45;100.00
4590;BME280;2307;48.448;9.216;2022-10-16T09:28:09;95665.38;;;19.28;100.00
4590;BME280;2307;48.448;9.216;2022-10-16T09:30:35;95667.69;;;19.39;100.00
4590;BME280;2307;48.448;9.216;2022-10-16T09:33:03;95669.63;;;19.34;100.00
4590;BME280;2307;48.448;9.216;2022-10-16T09:35:31;95672.72;;;19.46;100.00
4590;BME280;2307;48.448;9.216;2022-10-16T09:37:58;95675.69;;;19.44;100.00
4590;BME280;2307;48.448;9.216;2022-10-16T09:40:25;95673.19;;;19.53;100.00
4590;BME280;2307;48.448;9.216;2022-10-16T09:42:56;95675.81;;;19.58;100.00
4590;BME280;2307;48.448;9.216;2022-10-16T09:45:23;95680.03;;;19.64;100.00
4590;BME280;2307;48.448;9.216;2022-10-16T09:47:50;95678.72;;;19.61;94.07
4590;BME280;2307;48.448;9.216;2022-10-16T09:50:20;95685.41;;;19.64;95.21
4590;BME280;2307;48.448;9.216;2022-10-16T09:52:47;95677.94;;;19.61;98.02
4590;BME280;2307;48.448;9.216;2022-10-16T09:55:14;95686.47;;;19.63;98.18
4590;BME280;2307;48.448;9.216;2022-10-16T09:57:48;95681.31;;;19.72;100.00
4590;BME280;2307;48.448;9.216;2022-10-16T10:00:16;95686.44;;;19.68;95.40
4590;BME280;2307;48.448;9.216;2022-10-16T10:02:43;95682.72;;;19.64;98.76
4590;BME280;2307;48.448;9.216;2022-10-16T10:05:17;95683.22;;;19.66;93.97
4590;BME280;2307;48.448;9.216;2022-10-16T10:07:44;95679.53;;;19.62;97.36
4590;BME280;2307;48.448;9.216;2022-10-16T10:10:18;95679.22;;;19.63;90.94
4590;BME280;2307;48.448;9.216;2022-10-16T10:12:45;95679.94;;;19.74;96.23
4590;BME280;2307;48.448;9.216;2022-10-16T10:15:12;95672.16;;;19.73;91.62
4590;BME280;2307;48.448;9.216;2022-10-16T10:17:47;95676.69;;;19.77;89.17
4590;BME280;2307;48.448;9.216;2022-10-16T10:20:16;95677.06;;;19.89;90.24
4590;BME280;2307;48.448;9.216;2022-10-16T10:22:47;95670.56;;;19.95;86.40
4590;BME280;2307;48.448;9.216;2022-10-16T10:25:25;95674.03;;;19.96;85.92
4590;BME280;2307;48.448;9.216;2022-10-16T10:28:00;95678.09;;;19.93;85.89
4590;BME280;2307;48.448;9.216;2022-10-16T10:30:29;95682.06;;;20.01;87.90
4590;BME280;2307;48.448;9.216;2022-10-16T10:33:08;95678.41;;;20.10;88.69
4590;BME280;2307;48.448;9.216;2022-10-16T10:35:39;95678.78;;;20.46;88.55
4590;BME280;2307;48.448;9.216;2022-10-16T10:38:11;95679.06;;;20.82;84.04
4590;BME280;2307;48.448;9.216;2022-10-16T10:40:45;95680.84;;;21.24;80.14
4590;BME280;2307;48.448;9.216;2022-10-16T10:43:25;95683.69;;;21.60;73.74
4590;BME280;2307;48.448;9.216;2022-10-16T10:45:54;95682.72;;;21.83;71.47
4590;BME280;2307;48.448;9.216;2022-10-16T10:48:29;95672.41;;;22.04;69.04
4590;BME280;2307;48.448;9.216;2022-10-16T10:51:05;95676.94;;;22.31;61.77
4590;BME280;2307;48.448;9.216;2022-10-16T10:53:36;95690.94;;;22.55;62.98
4590;BME280;2307;48.448;9.216;2022-10-16T10:56:10;95679.28;;;22.95;58.71
4590;BME280;2307;48.448;9.216;2022-10-16T10:58:50;95680.63;;;23.28;56.41
4590;BME280;2307;48.448;9.216;2022-10-16T11:01:24;95675.78;;;23.39;53.00
4590;BME280;2307;48.448;9.216;2022-10-16T11:04:05;95675.16;;;23.73;53.46
4590;BME280;2307;48.448;9.216;2022-10-16T11:06:39;95675.44;;;23.63;49.55
4590;BME280;2307;48.448;9.216;2022-10-16T11:09:08;95676.81;;;23.91;50.16
4590;BME280;2307;48.448;9.216;2022-10-16T11:11:37;95666.56;;;24.02;48.86
4590;BME280;2307;48.448;9.216;2022-10-16T11:14:05;95662.81;;;24.20;49.75
4590;BME280;2307;48.448;9.216;2022-10-16T11:16:34;95667.28;;;24.24;50.43
4590;BME280;2307;48.448;9.216;2022-10-16T11:19:04;95671.91;;;24.32;49.84
4590;BME280;2307;48.448;9.216;2022-10-16T11:21:39;95666.66;;;24.36;45.72
4590;BME280;2307;48.448;9.216;2022-10-16T11:24:10;95663.84;;;24.41;47.35
4590;BME280;2307;48.448;9.216;2022-10-16T11:26:41;95669.06;;;24.38;45.37
4590;BME280;2307;48.448;9.216;2022-10-16T11:29:10;95667.13;;;24.29;45.06
4590;BME280;2307;48.448;9.216;2022-10-16T11:31:40;95662.56;;;24.39;45.83
4590;BME280;2307;48.448;9.216;2022-10-16T11:34:11;95657.31;;;24.42;43.97
4590;BME280;2307;48.448;9.216;2022-10-16T11:36:42;95650.81;;;24.60;46.04
4590;BME280;2307;48.448;9.216;2022-10-16T11:39:17;95655.78;;;24.84;45.09
4590;BME280;2307;48.448;9.216;2022-10-16T11:41:46;95654.66;;;24.85;44.88
4590;BME280;2307;48.448;9.216;2022-10-16T11:44:19;95661.50;;;24.82;45.23
4590;BME280;2307;48.448;9.216;2022-10-16T11:46:49;95649.22;;;24.59;44.48
4590;BME280;2307;48.448;9.216;2022-10-16T11:49:19;95662.56;;;24.47;46.18
4590;BME280;2307;48.448;9.216;2022-10-16T11:51:48;95655.25;;;24.48;45.89
4590;BME280;2307;48.448;9.216;2022-10-16T11:54:20;95657.00;;;24.44;47.60
4590;BME280;2307;48.448;9.216;2022-10-16T11:56:48;95652.41;;;24.44;45.17
4590;BME280;2307;48.448;9.216;2022-10-16T11:59:19;95651.59;;;24.52;46.66
4590;BME280;2307;48.448;9.216;2022-10-16T12:01:49;95656.53;;;24.59;47.54
4590;BME280;2307;48.448;9.216;2022-10-16T12:04:21;95653.03;;;24.58;45.55
4590;BME280;2307;48.448;9.216;2022-10-16T12:06:52;95649.72;;;24.70;46.99
4590;BME280;2307;48.448;9.216;2022-10-16T12:09:24;95648.44;;;24.93;45.69
4590;BME280;2307;48.448;9.216;2022-10-16T12:11:51;95647.19;;;25.08;45.13
4590;BME280;2307;48.448;9.216;2022-10-16T12:14:19;95648.75;;;25.17;45.31
4590;BME280;2307;48.448;9.216;2022-10-16T12:16:52;95655.41;;;25.28;46.36
4590;BME280;2307;48.448;9.216;2022-10-16T12:19:21;95645.66;;;25.45;46.08
4590;BME280;2307;48.448;9.216;2022-10-16T12:21:47;95649.63;;;25.47;45.87
4590;BME280;2307;48.448;9.216;2022-10-16T12:24:26;95647.88;;;25.60;45.10
4590;BME280;2307;48.448;9.216;2022-10-16T12:26:54;95653.09;;;25.73;44.99
4590;BME280;2307;48.448;9.216;2022-10-16T12:29:23;95645.63;;;25.70;45.15
4590;BME280;2307;48.448;9.216;2022-10-16T12:31:52;95648.34;;;25.62;42.73
4590;BME280;2307;48.448;9.216;2022-10-16T12:34:22;95643.59;;;25.59;45.37
4590;BME280;2307;48.448;9.216;2022-10-16T12:36:49;95647.84;;;25.68;45.26
4590;BME280;2307;48.448;9.216;2022-10-16T12:39:20;95651.06;;;25.53;43.82
4590;BME280;2307;48.448;9.216;2022-10-16T12:41:47;95652.78;;;25.66;44.15
4590;BME280;2307;48.448;9.216;2022-10-16T12:44:21;95646.75;;;25.61;43.96
4590;BME280;2307;48.448;9.216;2022-10-16T12:46:49;95655.38;;;25.46;43.18
4590;BME280;2307;48.448;9.216;2022-10-16T12:49:23;95648.56;;;25.31;43.89
4590;BME280;2307;48.448;9.216;2022-10-16T12:51:55;95645.84;;;25.40;44.19
4590;BME280;2307;48.448;9.216;2022-10-16T12:54:22;95649.28;;;25.66;42.81
4590;BME280;2307;48.448;9.216;2022-10-16T12:57:01;95656.38;;;25.87;43.76
4590;BME280;2307;48.448;9.216;2022-10-16T12:59:35;95649.41;;;26.07;43.92
4590;BME280;2307;48.448;9.216;2022-10-16T13:07:39;95647.41;;;26.75;42.41
4590;BME280;2307;48.448;9.216;2022-10-16T13:10:14;95648.53;;;26.53;41.62
4590;BME280;2307;48.448;9.216;2022-10-16T13:12:49;95651.22;;;26.32;40.85
4590;BME280;2307;48.448;9.216;2022-10-16T13:18:03;95659.34;;;26.32;41.48
4590;BME280;2307;48.448;9.216;2022-10-16T13:20:34;95663.28;;;26.44;42.01
4590;BME280;2307;48.448;9.216;2022-10-16T13:23:05;95660.22;;;26.45;42.57
4590;BME280;2307;48.448;9.216;2022-10-16T13:25:38;95660.72;;;26.38;42.51
4590;BME280;2307;48.448;9.216;2022-10-16T13:28:08;95666.06;;;26.56;41.45
4590;BME280;2307;48.448;9.216;2022-10-16T13:30:36;95664.59;;;26.58;41.76
4590;BME280;2307;48.448;9.216;2022-10-16T13:33:06;95666.13;;;26.68;41.57